sensor_id;sensor_type;location;lat;lon;timestamp;P1;durP1;ratioP1;P2;durP2;ratioP2
65156;SDS011;52745;49.794;18.258;2023-04-30T00:01:25;33.00;;;17.40;;
65156;SDS011;52745;49.794;18.258;2023-04-30T00:03:51;31.08;;;18.33;;
65156;SDS011;52745;49.794;18.258;2023-04-30T00:06:18;29.33;;;18.20;;
65156;SDS011;52745;49.794;18.258;2023-04-30T00:08:45;32.50;;;18.25;;
65156;SDS011;52745;49.794;18.258;2023-04-30T00:11:12;32.85;;;18.42;;
65156;SDS011;52745;49.794;18.258;2023-04-30T00:13:38;32.90;;;18.48;;
65156;SDS011;52745;49.794;18.258;2023-04-30T00:16:05;35.42;;;19.20;;
65156;SDS011;52745;49.794;18.258;2023-04-30T00:18:32;33.67;;;19.55;;
65156;SDS011;52745;49.794;18.258;2023-04-30T00:20:59;33.72;;;19.42;;
65156;SDS011;52745;49.794;18.258;2023-04-30T00:23:25;35.63;;;19.55;;
65156;SDS011;52745;49.794;18.258;2023-04-30T00:25:52;30.85;;;18.02;;
65156;SDS011;52745;49.794;18.258;2023-04-30T00:28:19;31.98;;;18.50;;
65156;SDS011;52745;49.794;18.258;2023-04-30T00:30:46;29.67;;;18.33;;
65156;SDS011;52745;49.794;18.258;2023-04-30T00:33:12;34.60;;;18.05;;
65156;SDS011;52745;49.794;18.258;2023-04-30T00:35:39;31.83;;;18.35;;
65156;SDS011;52745;49.794;18.258;2023-04-30T00:38:07;36.10;;;19.73;;
65156;SDS011;52745;49.794;18.258;2023-04-30T00:40:34;34.25;;;19.50;;
65156;SDS011;52745;49.794;18.258;2023-04-30T00:43:01;31.80;;;19.05;;
65156;SDS011;52745;49.794;18.258;2023-04-30T00:45:30;32.17;;;19.30;;
65156;SDS011;52745;49.794;18.258;2023-04-30T00:47:56;31.60;;;19.30;;
65156;SDS011;52745;49.794;18.258;2023-04-30T00:50:23;35.33;;;19.25;;
65156;SDS011;52745;49.794;18.258;2023-04-30T00:52:51;35.25;;;20.27;;
65156;SDS011;52745;49.794;18.258;2023-04-30T00:55:18;34.10;;;19.60;;
65156;SDS011;52745;49.794;18.258;2023-04-30T00:57:45;39.40;;;20.63;;
65156;SDS011;52745;49.794;18.258;2023-04-30T01:00:12;33.22;;;19.42;;
65156;SDS011;52745;49.794;18.258;2023-04-30T01:02:39;33.75;;;19.00;;
65156;SDS011;52745;49.794;18.258;2023-04-30T01:05:06;30.38;;;19.05;;
65156;SDS011;52745;49.794;18.258;2023-04-30T01:07:34;30.55;;;18.88;;
65156;SDS011;52745;49.794;18.258;2023-04-30T01:10:01;30.15;;;18.35;;
65156;SDS011;52745;49.794;18.258;2023-04-30T01:12:34;30.58;;;18.52;;
65156;SDS011;52745;49.794;18.258;2023-04-30T01:21:04;28.65;;;17.20;;
65156;SDS011;52745;49.794;18.258;2023-04-30T01:29:13;27.52;;;16.80;;
65156;SDS011;52745;49.794;18.258;2023-04-30T01:31:42;30.98;;;16.00;;
65156;SDS011;52745;49.794;18.258;2023-04-30T01:34:09;23.65;;;15.90;;
65156;SDS011;52745;49.794;18.258;2023-04-30T01:40:23;25.55;;;15.50;;
65156;SDS011;52745;49.794;18.258;2023-04-30T01:42:44;30.60;;;15.98;;
65156;SDS011;52745;49.794;18.258;2023-04-30T01:45:26;24.90;;;15.05;;
65156;SDS011;52745;49.794;18.258;2023-04-30T01:48:12;23.33;;;14.10;;
65156;SDS011;52745;49.794;18.258;2023-04-30T01:51:12;23.42;;;13.98;;
65156;SDS011;52745;49.794;18.258;2023-04-30T01:53:45;24.98;;;15.23;;
65156;SDS011;52745;49.794;18.258;2023-04-30T01:56:20;22.95;;;13.52;;
65156;SDS011;52745;49.794;18.258;2023-04-30T01:58:53;21.90;;;12.25;;
65156;SDS011;52745;49.794;18.258;2023-04-30T02:01:28;19.00;;;11.20;;
65156;SDS011;52745;49.794;18.258;2023-04-30T02:03:56;20.83;;;11.18;;
65156;SDS011;52745;49.794;18.258;2023-04-30T02:06:24;23.45;;;13.05;;
65156;SDS011;52745;49.794;18.258;2023-04-30T02:08:53;23.60;;;13.15;;
65156;SDS011;52745;49.794;18.258;2023-04-30T02:11:32;20.85;;;12.68;;
65156;SDS011;52745;49.794;18.258;2023-04-30T02:13:58;21.13;;;12.15;;
65156;SDS011;52745;49.794;18.258;2023-04-30T02:16:25;22.30;;;12.90;;
65156;SDS011;52745;49.794;18.258;2023-04-30T02:18:52;18.73;;;13.02;;
65156;SDS011;52745;49.794;18.258;2023-04-30T02:21:19;23.05;;;12.93;;
65156;SDS011;52745;49.794;18.258;2023-04-30T02:23:47;19.17;;;12.18;;
65156;SDS011;52745;49.794;18.258;2023-04-30T02:26:13;23.42;;;13.27;;
65156;SDS011;52745;49.794;18.258;2023-04-30T02:28:40;22.80;;;13.50;;
65156;SDS011;52745;49.794;18.258;2023-04-30T02:31:07;23.15;;;13.60;;
65156;SDS011;52745;49.794;18.258;2023-04-30T02:33:34;21.15;;;12.68;;
65156;SDS011;52745;49.794;18.258;2023-04-30T02:36:00;21.15;;;12.60;;
65156;SDS011;52745;49.794;18.258;2023-04-30T02:38:28;21.83;;;12.50;;
65156;SDS011;52745;49.794;18.258;2023-04-30T02:40:54;20.42;;;12.05;;
65156;SDS011;52745;49.794;18.258;2023-04-30T02:43:21;22.92;;;12.30;;
65156;SDS011;52745;49.794;18.258;2023-04-30T02:45:48;22.25;;;13.05;;
65156;SDS011;52745;49.794;18.258;2023-04-30T02:48:15;23.10;;;12.35;;
65156;SDS011;52745;49.794;18.258;2023-04-30T02:50:41;25.08;;;12.65;;
65156;SDS011;52745;49.794;18.258;2023-04-30T02:53:08;21.83;;;11.95;;
65156;SDS011;52745;49.794;18.258;2023-04-30T02:55:35;23.63;;;12.15;;
65156;SDS011;52745;49.794;18.258;2023-04-30T02:58:01;23.00;;;12.88;;
65156;SDS011;52745;49.794;18.258;2023-04-30T03:00:28;22.15;;;11.95;;
65156;SDS011;52745;49.794;18.258;2023-04-30T03:02:55;25.15;;;12.85;;
65156;SDS011;52745;49.794;18.258;2023-04-30T03:05:22;24.00;;;13.05;;
65156;SDS011;52745;49.794;18.258;2023-04-30T03:07:49;21.33;;;12.73;;
65156;SDS011;52745;49.794;18.258;2023-04-30T03:10:16;20.90;;;11.80;;
65156;SDS011;52745;49.794;18.258;2023-04-30T03:12:44;20.90;;;11.85;;
65156;SDS011;52745;49.794;18.258;2023-04-30T03:15:10;19.30;;;11.07;;
65156;SDS011;52745;49.794;18.258;2023-04-30T03:17:37;19.33;;;12.07;;
65156;SDS011;52745;49.794;18.258;2023-04-30T03:20:04;16.75;;;10.27;;
65156;SDS011;52745;49.794;18.258;2023-04-30T03:22:32;17.00;;;11.05;;
65156;SDS011;52745;49.794;18.258;2023-04-30T03:24:59;20.00;;;11.38;;
65156;SDS011;52745;49.794;18.258;2023-04-30T03:27:26;17.55;;;10.30;;
65156;SDS011;52745;49.794;18.258;2023-04-30T03:29:52;19.25;;;11.40;;
65156;SDS011;52745;49.794;18.258;2023-04-30T03:32:19;20.60;;;11.82;;
65156;SDS011;52745;49.794;18.258;2023-04-30T03:34:46;17.35;;;10.93;;
65156;SDS011;52745;49.794;18.258;2023-04-30T03:37:13;19.67;;;11.45;;
65156;SDS011;52745;49.794;18.258;2023-04-30T03:39:39;19.58;;;10.85;;
65156;SDS011;52745;49.794;18.258;2023-04-30T03:42:06;17.17;;;11.48;;
65156;SDS011;52745;49.794;18.258;2023-04-30T03:44:33;21.63;;;11.85;;
65156;SDS011;52745;49.794;18.258;2023-04-30T03:47:00;16.80;;;10.85;;
65156;SDS011;52745;49.794;18.258;2023-04-30T03:49:26;17.20;;;10.95;;
65156;SDS011;52745;49.794;18.258;2023-04-30T03:51:53;23.95;;;11.43;;
65156;SDS011;52745;49.794;18.258;2023-04-30T03:54:20;19.30;;;10.77;;
65156;SDS011;52745;49.794;18.258;2023-04-30T03:56:47;18.38;;;11.02;;
65156;SDS011;52745;49.794;18.258;2023-04-30T03:59:13;17.88;;;11.48;;
65156;SDS011;52745;49.794;18.258;2023-04-30T04:01:40;17.88;;;10.20;;
65156;SDS011;52745;49.794;18.258;2023-04-30T04:04:07;16.83;;;10.55;;
65156;SDS011;52745;49.794;18.258;2023-04-30T04:06:34;17.00;;;10.43;;
65156;SDS011;52745;49.794;18.258;2023-04-30T04:09:01;17.83;;;10.80;;
65156;SDS011;52745;49.794;18.258;2023-04-30T04:11:29;18.92;;;10.73;;
65156;SDS011;52745;49.794;18.258;2023-04-30T04:13:56;15.75;;;10.23;;
65156;SDS011;52745;49.794;18.258;2023-04-30T04:16:23;17.05;;;9.95;;
65156;SDS011;52745;49.794;18.258;2023-04-30T04:18:50;16.20;;;9.68;;
65156;SDS011;52745;49.794;18.258;2023-04-30T04:21:17;16.00;;;9.95;;
65156;SDS011;52745;49.794;18.258;2023-04-30T04:23:45;13.25;;;9.90;;
65156;SDS011;52745;49.794;18.258;2023-04-30T04:26:12;16.13;;;10.07;;
65156;SDS011;52745;49.794;18.258;2023-04-30T04:28:40;15.82;;;10.23;;
65156;SDS011;52745;49.794;18.258;2023-04-30T04:31:07;22.67;;;10.63;;
65156;SDS011;52745;49.794;18.258;2023-04-30T04:33:34;18.05;;;10.70;;
65156;SDS011;52745;49.794;18.258;2023-04-30T04:36:02;18.27;;;11.10;;
65156;SDS011;52745;49.794;18.258;2023-04-30T04:38:29;18.10;;;10.98;;
65156;SDS011;52745;49.794;18.258;2023-04-30T04:40:56;15.10;;;10.80;;
65156;SDS011;52745;49.794;18.258;2023-04-30T04:43:23;17.85;;;10.88;;
65156;SDS011;52745;49.794;18.258;2023-04-30T04:45:50;16.50;;;11.32;;
65156;SDS011;52745;49.794;18.258;2023-04-30T04:48:17;21.20;;;10.75;;
65156;SDS011;52745;49.794;18.258;2023-04-30T04:50:44;16.80;;;10.25;;
65156;SDS011;52745;49.794;18.258;2023-04-30T04:53:10;19.27;;;11.35;;
65156;SDS011;52745;49.794;18.258;2023-04-30T04:55:38;21.20;;;11.05;;
65156;SDS011;52745;49.794;18.258;2023-04-30T04:58:05;18.73;;;9.80;;
65156;SDS011;52745;49.794;18.258;2023-04-30T05:00:32;21.20;;;9.98;;
65156;SDS011;52745;49.794;18.258;2023-04-30T05:02:59;17.70;;;9.57;;
65156;SDS011;52745;49.794;18.258;2023-04-30T05:05:25;17.23;;;9.98;;
65156;SDS011;52745;49.794;18.258;2023-04-30T05:07:52;17.30;;;10.23;;
65156;SDS011;52745;49.794;18.258;2023-04-30T05:10:20;16.95;;;9.45;;
65156;SDS011;52745;49.794;18.258;2023-04-30T05:12:47;14.80;;;9.30;;
65156;SDS011;52745;49.794;18.258;2023-04-30T05:15:13;17.70;;;9.43;;
65156;SDS011;52745;49.794;18.258;2023-04-30T05:17:40;16.20;;;8.85;;
65156;SDS011;52745;49.794;18.258;2023-04-30T05:20:07;12.13;;;8.23;;
65156;SDS011;52745;49.794;18.258;2023-04-30T05:22:34;15.00;;;8.43;;
65156;SDS011;52745;49.794;18.258;2023-04-30T05:25:01;15.23;;;8.82;;
65156;SDS011;52745;49.794;18.258;2023-04-30T05:27:27;16.00;;;9.13;;
65156;SDS011;52745;49.794;18.258;2023-04-30T05:29:54;15.82;;;8.45;;
65156;SDS011;52745;49.794;18.258;2023-04-30T05:32:21;15.45;;;8.48;;
65156;SDS011;52745;49.794;18.258;2023-04-30T05:34:49;15.80;;;9.40;;
65156;SDS011;52745;49.794;18.258;2023-04-30T05:37:15;15.48;;;8.77;;
65156;SDS011;52745;49.794;18.258;2023-04-30T05:39:45;16.50;;;8.23;;
65156;SDS011;52745;49.794;18.258;2023-04-30T05:42:11;16.05;;;8.68;;
65156;SDS011;52745;49.794;18.258;2023-04-30T05:44:39;14.93;;;9.57;;
65156;SDS011;52745;49.794;18.258;2023-04-30T05:47:06;14.35;;;8.70;;
65156;SDS011;52745;49.794;18.258;2023-04-30T05:49:33;14.93;;;8.70;;
65156;SDS011;52745;49.794;18.258;2023-04-30T05:51:59;14.88;;;8.60;;
65156;SDS011;52745;49.794;18.258;2023-04-30T05:54:28;13.98;;;8.63;;
65156;SDS011;52745;49.794;18.258;2023-04-30T05:56:55;20.05;;;9.07;;
65156;SDS011;52745;49.794;18.258;2023-04-30T05:59:22;12.73;;;8.45;;
65156;SDS011;52745;49.794;18.258;2023-04-30T06:01:48;13.73;;;8.23;;
65156;SDS011;52745;49.794;18.258;2023-04-30T06:04:15;13.48;;;8.38;;
65156;SDS011;52745;49.794;18.258;2023-04-30T06:06:42;16.27;;;8.88;;
65156;SDS011;52745;49.794;18.258;2023-04-30T06:09:09;13.55;;;7.75;;
65156;SDS011;52745;49.794;18.258;2023-04-30T06:11:36;11.90;;;7.18;;
65156;SDS011;52745;49.794;18.258;2023-04-30T06:14:04;12.27;;;7.85;;
65156;SDS011;52745;49.794;18.258;2023-04-30T06:16:31;14.32;;;7.32;;
65156;SDS011;52745;49.794;18.258;2023-04-30T06:18:58;13.65;;;7.95;;
65156;SDS011;52745;49.794;18.258;2023-04-30T06:21:25;15.50;;;8.32;;
65156;SDS011;52745;49.794;18.258;2023-04-30T06:23:52;13.75;;;8.20;;
65156;SDS011;52745;49.794;18.258;2023-04-30T06:26:18;11.35;;;6.75;;
65156;SDS011;52745;49.794;18.258;2023-04-30T06:28:46;11.75;;;7.22;;
65156;SDS011;52745;49.794;18.258;2023-04-30T06:31:12;12.02;;;7.53;;
65156;SDS011;52745;49.794;18.258;2023-04-30T06:33:39;14.55;;;7.28;;
65156;SDS011;52745;49.794;18.258;2023-04-30T06:36:06;12.65;;;6.80;;
65156;SDS011;52745;49.794;18.258;2023-04-30T06:38:33;11.77;;;7.13;;
65156;SDS011;52745;49.794;18.258;2023-04-30T06:40:59;13.27;;;6.95;;
65156;SDS011;52745;49.794;18.258;2023-04-30T06:43:26;16.08;;;7.18;;
65156;SDS011;52745;49.794;18.258;2023-04-30T06:45:52;13.18;;;7.47;;
65156;SDS011;52745;49.794;18.258;2023-04-30T06:48:19;9.40;;;6.70;;
65156;SDS011;52745;49.794;18.258;2023-04-30T06:50:46;11.20;;;7.32;;
65156;SDS011;52745;49.794;18.258;2023-04-30T06:53:13;13.82;;;7.00;;
65156;SDS011;52745;49.794;18.258;2023-04-30T06:55:40;14.15;;;7.35;;
65156;SDS011;52745;49.794;18.258;2023-04-30T06:58:08;11.23;;;7.15;;
65156;SDS011;52745;49.794;18.258;2023-04-30T07:00:34;9.82;;;6.93;;
65156;SDS011;52745;49.794;18.258;2023-04-30T07:03:01;12.55;;;6.75;;
65156;SDS011;52745;49.794;18.258;2023-04-30T07:05:30;14.13;;;6.97;;
65156;SDS011;52745;49.794;18.258;2023-04-30T07:07:57;10.90;;;7.13;;
65156;SDS011;52745;49.794;18.258;2023-04-30T07:10:26;12.77;;;7.40;;
65156;SDS011;52745;49.794;18.258;2023-04-30T07:12:55;11.52;;;7.15;;
65156;SDS011;52745;49.794;18.258;2023-04-30T07:15:22;12.18;;;7.05;;
65156;SDS011;52745;49.794;18.258;2023-04-30T07:17:49;10.95;;;7.03;;
65156;SDS011;52745;49.794;18.258;2023-04-30T07:20:15;10.80;;;6.72;;
65156;SDS011;52745;49.794;18.258;2023-04-30T07:22:42;12.45;;;7.10;;
65156;SDS011;52745;49.794;18.258;2023-04-30T07:25:11;12.82;;;7.75;;
65156;SDS011;52745;49.794;18.258;2023-04-30T07:27:38;9.20;;;6.75;;
65156;SDS011;52745;49.794;18.258;2023-04-30T07:30:06;12.93;;;6.85;;
65156;SDS011;52745;49.794;18.258;2023-04-30T07:32:37;12.00;;;6.57;;
65156;SDS011;52745;49.794;18.258;2023-04-30T07:35:06;12.48;;;7.28;;
65156;SDS011;52745;49.794;18.258;2023-04-30T07:37:33;10.18;;;6.05;;
65156;SDS011;52745;49.794;18.258;2023-04-30T07:39:59;10.27;;;6.30;;
65156;SDS011;52745;49.794;18.258;2023-04-30T07:42:26;10.63;;;6.32;;
65156;SDS011;52745;49.794;18.258;2023-04-30T07:44:53;8.90;;;6.03;;
65156;SDS011;52745;49.794;18.258;2023-04-30T07:47:20;8.77;;;6.18;;
65156;SDS011;52745;49.794;18.258;2023-04-30T07:49:46;13.05;;;6.05;;
65156;SDS011;52745;49.794;18.258;2023-04-30T07:52:13;8.85;;;5.97;;
65156;SDS011;52745;49.794;18.258;2023-04-30T07:54:40;10.25;;;6.13;;
65156;SDS011;52745;49.794;18.258;2023-04-30T07:57:07;14.57;;;6.07;;
65156;SDS011;52745;49.794;18.258;2023-04-30T07:59:33;11.85;;;6.25;;
65156;SDS011;52745;49.794;18.258;2023-04-30T08:02:00;8.95;;;6.18;;
65156;SDS011;52745;49.794;18.258;2023-04-30T08:04:27;10.55;;;6.10;;
65156;SDS011;52745;49.794;18.258;2023-04-30T08:06:54;9.52;;;6.20;;
65156;SDS011;52745;49.794;18.258;2023-04-30T08:09:20;10.48;;;5.95;;
65156;SDS011;52745;49.794;18.258;2023-04-30T08:11:47;12.23;;;6.95;;
65156;SDS011;52745;49.794;18.258;2023-04-30T08:14:14;13.00;;;6.88;;
65156;SDS011;52745;49.794;18.258;2023-04-30T08:16:41;11.90;;;6.03;;
65156;SDS011;52745;49.794;18.258;2023-04-30T08:19:07;11.57;;;6.35;;
65156;SDS011;52745;49.794;18.258;2023-04-30T08:21:34;9.15;;;6.47;;
65156;SDS011;52745;49.794;18.258;2023-04-30T08:24:01;10.60;;;6.63;;
65156;SDS011;52745;49.794;18.258;2023-04-30T08:26:28;11.18;;;6.88;;
65156;SDS011;52745;49.794;18.258;2023-04-30T08:28:54;10.75;;;6.78;;
65156;SDS011;52745;49.794;18.258;2023-04-30T08:31:21;9.13;;;6.65;;
65156;SDS011;52745;49.794;18.258;2023-04-30T08:33:48;8.82;;;6.10;;
65156;SDS011;52745;49.794;18.258;2023-04-30T08:36:15;8.05;;;6.43;;
65156;SDS011;52745;49.794;18.258;2023-04-30T08:38:41;10.60;;;5.78;;
65156;SDS011;52745;49.794;18.258;2023-04-30T08:41:10;9.68;;;6.22;;
65156;SDS011;52745;49.794;18.258;2023-04-30T08:43:38;9.50;;;5.20;;
65156;SDS011;52745;49.794;18.258;2023-04-30T08:46:06;8.45;;;5.85;;
65156;SDS011;52745;49.794;18.258;2023-04-30T08:48:33;10.90;;;5.90;;
65156;SDS011;52745;49.794;18.258;2023-04-30T08:51:00;12.23;;;7.68;;
65156;SDS011;52745;49.794;18.258;2023-04-30T08:53:33;9.00;;;6.22;;
65156;SDS011;52745;49.794;18.258;2023-04-30T08:56:02;8.57;;;5.95;;
65156;SDS011;52745;49.794;18.258;2023-04-30T08:58:29;9.18;;;5.85;;
65156;SDS011;52745;49.794;18.258;2023-04-30T09:00:59;9.77;;;5.53;;
65156;SDS011;52745;49.794;18.258;2023-04-30T09:03:26;10.20;;;5.90;;
65156;SDS011;52745;49.794;18.258;2023-04-30T09:05:54;8.50;;;5.50;;
65156;SDS011;52745;49.794;18.258;2023-04-30T09:08:39;11.73;;;5.70;;
65156;SDS011;52745;49.794;18.258;2023-04-30T09:14:07;11.27;;;5.55;;
65156;SDS011;52745;49.794;18.258;2023-04-30T09:16:44;9.85;;;4.85;;
65156;SDS011;52745;49.794;18.258;2023-04-30T09:19:25;9.15;;;4.60;;
65156;SDS011;52745;49.794;18.258;2023-04-30T09:21:56;8.02;;;4.63;;
65156;SDS011;52745;49.794;18.258;2023-04-30T09:24:22;11.88;;;5.15;;
65156;SDS011;52745;49.794;18.258;2023-04-30T09:26:50;9.35;;;4.78;;
65156;SDS011;52745;49.794;18.258;2023-04-30T09:29:17;10.70;;;4.57;;
65156;SDS011;52745;49.794;18.258;2023-04-30T09:31:44;9.88;;;4.43;;
65156;SDS011;52745;49.794;18.258;2023-04-30T09:34:12;9.35;;;4.40;;
65156;SDS011;52745;49.794;18.258;2023-04-30T09:36:53;7.45;;;4.30;;
65156;SDS011;52745;49.794;18.258;2023-04-30T09:39:20;6.88;;;4.30;;
65156;SDS011;52745;49.794;18.258;2023-04-30T09:41:49;7.75;;;4.47;;
65156;SDS011;52745;49.794;18.258;2023-04-30T09:44:26;6.85;;;4.40;;
65156;SDS011;52745;49.794;18.258;2023-04-30T09:46:54;6.15;;;3.88;;
65156;SDS011;52745;49.794;18.258;2023-04-30T09:49:25;11.70;;;4.13;;
65156;SDS011;52745;49.794;18.258;2023-04-30T09:51:57;7.97;;;3.85;;
65156;SDS011;52745;49.794;18.258;2023-04-30T09:54:29;7.75;;;4.18;;
65156;SDS011;52745;49.794;18.258;2023-04-30T09:56:58;6.55;;;3.88;;
65156;SDS011;52745;49.794;18.258;2023-04-30T10:01:58;4.90;;;2.95;;
65156;SDS011;52745;49.794;18.258;2023-04-30T10:04:27;5.03;;;2.95;;
65156;SDS011;52745;49.794;18.258;2023-04-30T10:06:57;16.10;;;3.47;;
65156;SDS011;52745;49.794;18.258;2023-04-30T10:09:27;5.72;;;3.35;;
65156;SDS011;52745;49.794;18.258;2023-04-30T10:11:59;4.53;;;3.10;;
65156;SDS011;52745;49.794;18.258;2023-04-30T10:14:29;6.70;;;3.50;;
65156;SDS011;52745;49.794;18.258;2023-04-30T10:17:06;6.68;;;3.50;;
65156;SDS011;52745;49.794;18.258;2023-04-30T10:19:38;8.55;;;3.58;;
65156;SDS011;52745;49.794;18.258;2023-04-30T10:22:08;5.05;;;3.13;;
65156;SDS011;52745;49.794;18.258;2023-04-30T10:24:36;6.55;;;3.30;;
65156;SDS011;52745;49.794;18.258;2023-04-30T10:27:03;5.82;;;3.15;;
65156;SDS011;52745;49.794;18.258;2023-04-30T10:29:30;5.72;;;3.03;;
65156;SDS011;52745;49.794;18.258;2023-04-30T10:31:57;3.88;;;2.85;;
65156;SDS011;52745;49.794;18.258;2023-04-30T10:34:37;8.38;;;3.00;;
65156;SDS011;52745;49.794;18.258;2023-04-30T10:37:39;4.72;;;3.10;;
65156;SDS011;52745;49.794;18.258;2023-04-30T10:40:12;5.13;;;3.13;;
65156;SDS011;52745;49.794;18.258;2023-04-30T10:42:52;4.85;;;2.92;;
65156;SDS011;52745;49.794;18.258;2023-04-30T10:45:40;4.90;;;3.28;;
65156;SDS011;52745;49.794;18.258;2023-04-30T10:48:09;3.65;;;2.83;;
65156;SDS011;52745;49.794;18.258;2023-04-30T10:50:39;3.88;;;2.45;;
65156;SDS011;52745;49.794;18.258;2023-04-30T10:53:12;4.70;;;2.80;;
65156;SDS011;52745;49.794;18.258;2023-04-30T10:55:52;6.85;;;2.63;;
65156;SDS011;52745;49.794;18.258;2023-04-30T10:58:27;7.65;;;3.45;;
65156;SDS011;52745;49.794;18.258;2023-04-30T11:03:38;6.28;;;3.03;;
65156;SDS011;52745;49.794;18.258;2023-04-30T11:06:16;5.88;;;3.13;;
65156;SDS011;52745;49.794;18.258;2023-04-30T11:08:47;7.75;;;3.50;;
65156;SDS011;52745;49.794;18.258;2023-04-30T11:11:17;4.70;;;3.28;;
65156;SDS011;52745;49.794;18.258;2023-04-30T11:13:47;6.88;;;3.45;;
65156;SDS011;52745;49.794;18.258;2023-04-30T11:16:30;8.07;;;3.72;;
65156;SDS011;52745;49.794;18.258;2023-04-30T11:19:06;5.25;;;3.10;;
65156;SDS011;52745;49.794;18.258;2023-04-30T11:21:39;7.05;;;3.38;;
65156;SDS011;52745;49.794;18.258;2023-04-30T11:24:07;3.72;;;2.90;;
65156;SDS011;52745;49.794;18.258;2023-04-30T11:29:30;6.47;;;3.10;;
65156;SDS011;52745;49.794;18.258;2023-04-30T11:31:59;7.82;;;3.30;;
65156;SDS011;52745;49.794;18.258;2023-04-30T11:34:27;6.63;;;3.28;;
65156;SDS011;52745;49.794;18.258;2023-04-30T11:36:54;5.88;;;3.35;;
65156;SDS011;52745;49.794;18.258;2023-04-30T11:39:25;7.80;;;3.38;;
65156;SDS011;52745;49.794;18.258;2023-04-30T11:41:54;5.10;;;2.70;;
65156;SDS011;52745;49.794;18.258;2023-04-30T11:44:30;3.92;;;2.65;;
65156;SDS011;52745;49.794;18.258;2023-04-30T11:46:57;5.90;;;3.00;;
65156;SDS011;52745;49.794;18.258;2023-04-30T11:49:23;4.13;;;2.97;;
65156;SDS011;52745;49.794;18.258;2023-04-30T11:51:51;6.60;;;2.97;;
65156;SDS011;52745;49.794;18.258;2023-04-30T11:54:18;4.65;;;2.97;;
65156;SDS011;52745;49.794;18.258;2023-04-30T11:56:45;5.32;;;3.00;;
65156;SDS011;52745;49.794;18.258;2023-04-30T11:59:17;4.20;;;2.92;;
65156;SDS011;52745;49.794;18.258;2023-04-30T12:01:45;4.88;;;3.30;;
65156;SDS011;52745;49.794;18.258;2023-04-30T12:04:11;4.20;;;3.00;;
65156;SDS011;52745;49.794;18.258;2023-04-30T12:06:38;4.50;;;3.28;;
65156;SDS011;52745;49.794;18.258;2023-04-30T12:09:05;7.13;;;2.78;;
65156;SDS011;52745;49.794;18.258;2023-04-30T12:11:34;4.80;;;2.70;;
65156;SDS011;52745;49.794;18.258;2023-04-30T12:14:08;7.65;;;2.92;;
65156;SDS011;52745;49.794;18.258;2023-04-30T12:16:43;5.75;;;2.88;;
65156;SDS011;52745;49.794;18.258;2023-04-30T12:19:11;5.70;;;2.97;;
65156;SDS011;52745;49.794;18.258;2023-04-30T12:21:38;5.55;;;2.90;;
65156;SDS011;52745;49.794;18.258;2023-04-30T12:24:07;6.00;;;2.90;;
65156;SDS011;52745;49.794;18.258;2023-04-30T12:26:37;3.33;;;2.47;;
65156;SDS011;52745;49.794;18.258;2023-04-30T12:29:08;5.20;;;2.95;;
65156;SDS011;52745;49.794;18.258;2023-04-30T12:31:36;7.65;;;2.90;;
65156;SDS011;52745;49.794;18.258;2023-04-30T12:34:04;3.83;;;2.90;;
65156;SDS011;52745;49.794;18.258;2023-04-30T12:36:32;5.20;;;2.72;;
65156;SDS011;52745;49.794;18.258;2023-04-30T12:39:04;5.63;;;3.00;;
65156;SDS011;52745;49.794;18.258;2023-04-30T12:41:40;4.72;;;2.22;;
65156;SDS011;52745;49.794;18.258;2023-04-30T12:44:17;6.65;;;2.88;;
65156;SDS011;52745;49.794;18.258;2023-04-30T12:46:45;7.10;;;2.90;;
65156;SDS011;52745;49.794;18.258;2023-04-30T12:51:59;4.72;;;3.00;;
65156;SDS011;52745;49.794;18.258;2023-04-30T12:54:28;4.55;;;2.90;;
65156;SDS011;52745;49.794;18.258;2023-04-30T12:56:56;4.55;;;2.88;;
65156;SDS011;52745;49.794;18.258;2023-04-30T12:59:26;5.07;;;2.75;;
65156;SDS011;52745;49.794;18.258;2023-04-30T13:02:09;4.03;;;2.63;;
65156;SDS011;52745;49.794;18.258;2023-04-30T13:04:38;5.80;;;2.72;;
65156;SDS011;52745;49.794;18.258;2023-04-30T13:07:06;4.07;;;2.60;;
65156;SDS011;52745;49.794;18.258;2023-04-30T13:09:34;6.55;;;3.15;;
65156;SDS011;52745;49.794;18.258;2023-04-30T13:12:02;3.97;;;2.53;;
65156;SDS011;52745;49.794;18.258;2023-04-30T13:14:30;5.82;;;2.60;;
65156;SDS011;52745;49.794;18.258;2023-04-30T13:16:57;5.22;;;2.60;;
65156;SDS011;52745;49.794;18.258;2023-04-30T13:19:24;7.93;;;3.00;;
65156;SDS011;52745;49.794;18.258;2023-04-30T13:21:51;5.00;;;2.92;;
65156;SDS011;52745;49.794;18.258;2023-04-30T13:24:18;4.35;;;2.83;;
65156;SDS011;52745;49.794;18.258;2023-04-30T13:26:44;4.45;;;2.75;;
65156;SDS011;52745;49.794;18.258;2023-04-30T13:29:11;3.88;;;2.88;;
65156;SDS011;52745;49.794;18.258;2023-04-30T13:31:38;8.32;;;2.65;;
65156;SDS011;52745;49.794;18.258;2023-04-30T13:34:05;2.83;;;2.30;;
65156;SDS011;52745;49.794;18.258;2023-04-30T13:36:31;4.32;;;2.92;;
65156;SDS011;52745;49.794;18.258;2023-04-30T13:38:58;3.88;;;2.60;;
65156;SDS011;52745;49.794;18.258;2023-04-30T13:41:25;3.65;;;2.60;;
65156;SDS011;52745;49.794;18.258;2023-04-30T13:43:52;7.28;;;3.17;;
65156;SDS011;52745;49.794;18.258;2023-04-30T13:46:19;4.88;;;2.72;;
65156;SDS011;52745;49.794;18.258;2023-04-30T13:48:46;7.45;;;3.55;;
65156;SDS011;52745;49.794;18.258;2023-04-30T13:51:15;4.22;;;2.65;;
65156;SDS011;52745;49.794;18.258;2023-04-30T13:53:41;4.78;;;2.45;;
65156;SDS011;52745;49.794;18.258;2023-04-30T13:56:08;4.25;;;2.55;;
65156;SDS011;52745;49.794;18.258;2023-04-30T13:58:35;7.57;;;2.72;;
65156;SDS011;52745;49.794;18.258;2023-04-30T14:01:02;6.13;;;2.83;;
65156;SDS011;52745;49.794;18.258;2023-04-30T14:03:29;5.43;;;2.70;;
65156;SDS011;52745;49.794;18.258;2023-04-30T14:05:56;4.95;;;2.80;;
65156;SDS011;52745;49.794;18.258;2023-04-30T14:08:23;3.33;;;2.40;;
65156;SDS011;52745;49.794;18.258;2023-04-30T14:10:51;4.65;;;2.60;;
65156;SDS011;52745;49.794;18.258;2023-04-30T14:13:18;3.97;;;2.47;;
65156;SDS011;52745;49.794;18.258;2023-04-30T14:15:44;7.13;;;2.50;;
65156;SDS011;52745;49.794;18.258;2023-04-30T14:18:12;4.03;;;2.55;;
65156;SDS011;52745;49.794;18.258;2023-04-30T14:20:39;5.55;;;2.25;;
65156;SDS011;52745;49.794;18.258;2023-04-30T14:23:06;7.90;;;2.95;;
65156;SDS011;52745;49.794;18.258;2023-04-30T14:25:33;6.38;;;2.50;;
65156;SDS011;52745;49.794;18.258;2023-04-30T14:28:00;5.10;;;2.60;;
65156;SDS011;52745;49.794;18.258;2023-04-30T14:30:27;3.97;;;2.53;;
65156;SDS011;52745;49.794;18.258;2023-04-30T14:32:53;6.13;;;2.90;;
65156;SDS011;52745;49.794;18.258;2023-04-30T14:35:21;5.60;;;2.47;;
65156;SDS011;52745;49.794;18.258;2023-04-30T14:37:48;6.72;;;2.72;;
65156;SDS011;52745;49.794;18.258;2023-04-30T14:40:14;4.88;;;2.40;;
65156;SDS011;52745;49.794;18.258;2023-04-30T14:42:41;5.32;;;2.55;;
65156;SDS011;52745;49.794;18.258;2023-04-30T14:45:08;5.13;;;2.80;;
65156;SDS011;52745;49.794;18.258;2023-04-30T14:47:36;6.22;;;2.38;;
65156;SDS011;52745;49.794;18.258;2023-04-30T14:50:03;3.95;;;2.80;;
65156;SDS011;52745;49.794;18.258;2023-04-30T14:52:30;4.38;;;2.50;;
65156;SDS011;52745;49.794;18.258;2023-04-30T14:54:57;5.25;;;2.60;;
65156;SDS011;52745;49.794;18.258;2023-04-30T14:57:24;10.27;;;2.90;;
65156;SDS011;52745;49.794;18.258;2023-04-30T14:59:50;5.95;;;2.30;;